sensor_id;sensor_type;location;lat;lon;timestamp;P1;durP1;ratioP1;P2;durP2;ratioP2
66585;SDS011;53444;45.822;16.092;2022-08-14T00:00:18;7.35;;;6.00;;
66585;SDS011;53444;45.822;16.092;2022-08-14T00:02:46;8.25;;;5.93;;
66585;SDS011;53444;45.822;16.092;2022-08-14T00:05:14;8.90;;;6.80;;
66585;SDS011;53444;45.822;16.092;2022-08-14T00:07:44;8.93;;;6.37;;
66585;SDS011;53444;45.822;16.092;2022-08-14T00:10:12;8.15;;;6.32;;
66585;SDS011;53444;45.822;16.092;2022-08-14T00:12:42;8.02;;;6.03;;
66585;SDS011;53444;45.822;16.092;2022-08-14T00:15:12;7.97;;;6.03;;
66585;SDS011;53444;45.822;16.092;2022-08-14T00:17:40;9.63;;;6.15;;
66585;SDS011;53444;45.822;16.092;2022-08-14T00:20:08;8.77;;;6.20;;
66585;SDS011;53444;45.822;16.092;2022-08-14T00:22:36;7.93;;;6.30;;
66585;SDS011;53444;45.822;16.092;2022-08-14T00:25:05;9.57;;;6.60;;
66585;SDS011;53444;45.822;16.092;2022-08-14T00:27:33;10.50;;;6.20;;
66585;SDS011;53444;45.822;16.092;2022-08-14T00:30:00;9.02;;;6.10;;
66585;SDS011;53444;45.822;16.092;2022-08-14T00:32:26;8.23;;;6.00;;
66585;SDS011;53444;45.822;16.092;2022-08-14T00:34:53;7.05;;;5.95;;
66585;SDS011;53444;45.822;16.092;2022-08-14T00:37:21;6.90;;;5.50;;
66585;SDS011;53444;45.822;16.092;2022-08-14T00:39:47;8.98;;;6.03;;
66585;SDS011;53444;45.822;16.092;2022-08-14T00:42:19;8.02;;;5.97;;
66585;SDS011;53444;45.822;16.092;2022-08-14T00:44:45;7.37;;;5.97;;
66585;SDS011;53444;45.822;16.092;2022-08-14T00:47:13;9.27;;;6.53;;
66585;SDS011;53444;45.822;16.092;2022-08-14T00:49:40;7.55;;;6.22;;
66585;SDS011;53444;45.822;16.092;2022-08-14T00:52:07;7.65;;;6.05;;
66585;SDS011;53444;45.822;16.092;2022-08-14T00:54:34;7.43;;;6.60;;
66585;SDS011;53444;45.822;16.092;2022-08-14T00:57:03;8.50;;;6.00;;
66585;SDS011;53444;45.822;16.092;2022-08-14T00:59:31;8.43;;;6.40;;
66585;SDS011;53444;45.822;16.092;2022-08-14T01:02:00;8.38;;;6.43;;
66585;SDS011;53444;45.822;16.092;2022-08-14T01:04:28;8.95;;;6.32;;
66585;SDS011;53444;45.822;16.092;2022-08-14T01:06:56;7.82;;;5.93;;
66585;SDS011;53444;45.822;16.092;2022-08-14T01:09:24;8.67;;;6.40;;
66585;SDS011;53444;45.822;16.092;2022-08-14T01:11:52;9.18;;;6.28;;
66585;SDS011;53444;45.822;16.092;2022-08-14T01:14:19;6.85;;;6.05;;
66585;SDS011;53444;45.822;16.092;2022-08-14T01:16:47;7.22;;;5.93;;
66585;SDS011;53444;45.822;16.092;2022-08-14T01:19:14;7.30;;;6.50;;
66585;SDS011;53444;45.822;16.092;2022-08-14T01:22:00;7.00;;;6.13;;
66585;SDS011;53444;45.822;16.092;2022-08-14T01:24:27;8.98;;;6.90;;
66585;SDS011;53444;45.822;16.092;2022-08-14T01:26:53;7.68;;;6.50;;
66585;SDS011;53444;45.822;16.092;2022-08-14T01:29:20;9.93;;;6.70;;
66585;SDS011;53444;45.822;16.092;2022-08-14T01:31:47;10.10;;;6.75;;
66585;SDS011;53444;45.822;16.092;2022-08-14T01:34:14;9.00;;;6.70;;
66585;SDS011;53444;45.822;16.092;2022-08-14T01:36:41;7.93;;;6.63;;
66585;SDS011;53444;45.822;16.092;2022-08-14T01:39:09;10.88;;;6.63;;
66585;SDS011;53444;45.822;16.092;2022-08-14T01:41:37;9.18;;;6.57;;
66585;SDS011;53444;45.822;16.092;2022-08-14T01:44:06;8.82;;;6.65;;
66585;SDS011;53444;45.822;16.092;2022-08-14T01:46:37;9.10;;;6.90;;
66585;SDS011;53444;45.822;16.092;2022-08-14T01:49:06;16.50;;;7.00;;
66585;SDS011;53444;45.822;16.092;2022-08-14T01:51:34;7.93;;;6.53;;
66585;SDS011;53444;45.822;16.092;2022-08-14T01:54:04;7.45;;;6.57;;
66585;SDS011;53444;45.822;16.092;2022-08-14T01:56:35;7.55;;;6.80;;
66585;SDS011;53444;45.822;16.092;2022-08-14T01:59:03;7.73;;;6.23;;
66585;SDS011;53444;45.822;16.092;2022-08-14T02:01:32;9.57;;;6.45;;
66585;SDS011;53444;45.822;16.092;2022-08-14T02:04:00;9.00;;;5.97;;
66585;SDS011;53444;45.822;16.092;2022-08-14T02:06:26;8.50;;;6.80;;
66585;SDS011;53444;45.822;16.092;2022-08-14T02:08:54;8.60;;;6.45;;
66585;SDS011;53444;45.822;16.092;2022-08-14T02:11:21;8.73;;;6.57;;
66585;SDS011;53444;45.822;16.092;2022-08-14T02:13:52;8.65;;;6.90;;
66585;SDS011;53444;45.822;16.092;2022-08-14T02:16:24;8.70;;;6.28;;
66585;SDS011;53444;45.822;16.092;2022-08-14T02:18:54;8.70;;;7.15;;
66585;SDS011;53444;45.822;16.092;2022-08-14T02:21:22;10.45;;;6.90;;
66585;SDS011;53444;45.822;16.092;2022-08-14T02:23:50;7.50;;;6.17;;
66585;SDS011;53444;45.822;16.092;2022-08-14T02:26:19;7.97;;;6.63;;
66585;SDS011;53444;45.822;16.092;2022-08-14T02:28:52;10.93;;;6.75;;
66585;SDS011;53444;45.822;16.092;2022-08-14T02:31:20;7.53;;;6.47;;
66585;SDS011;53444;45.822;16.092;2022-08-14T02:33:47;7.47;;;6.47;;
66585;SDS011;53444;45.822;16.092;2022-08-14T02:36:13;8.77;;;6.47;;
66585;SDS011;53444;45.822;16.092;2022-08-14T02:38:40;7.95;;;6.35;;
66585;SDS011;53444;45.822;16.092;2022-08-14T02:41:08;9.63;;;5.93;;
66585;SDS011;53444;45.822;16.092;2022-08-14T02:43:37;7.18;;;5.72;;
66585;SDS011;53444;45.822;16.092;2022-08-14T02:46:06;7.35;;;6.20;;
66585;SDS011;53444;45.822;16.092;2022-08-14T02:48:35;8.87;;;6.33;;
66585;SDS011;53444;45.822;16.092;2022-08-14T02:51:04;7.68;;;6.20;;
66585;SDS011;53444;45.822;16.092;2022-08-14T02:53:32;10.68;;;6.65;;
66585;SDS011;53444;45.822;16.092;2022-08-14T02:55:59;8.32;;;6.97;;
66585;SDS011;53444;45.822;16.092;2022-08-14T02:58:27;9.63;;;6.50;;
66585;SDS011;53444;45.822;16.092;2022-08-14T03:00:55;8.03;;;6.70;;
66585;SDS011;53444;45.822;16.092;2022-08-14T03:03:23;7.63;;;6.75;;
66585;SDS011;53444;45.822;16.092;2022-08-14T03:05:50;9.02;;;7.30;;
66585;SDS011;53444;45.822;16.092;2022-08-14T03:08:19;8.02;;;6.65;;
66585;SDS011;53444;45.822;16.092;2022-08-14T03:10:46;10.20;;;6.60;;
66585;SDS011;53444;45.822;16.092;2022-08-14T03:13:13;8.33;;;6.60;;
66585;SDS011;53444;45.822;16.092;2022-08-14T03:15:40;8.63;;;6.35;;
66585;SDS011;53444;45.822;16.092;2022-08-14T03:18:09;11.35;;;6.50;;
66585;SDS011;53444;45.822;16.092;2022-08-14T03:20:38;8.65;;;5.90;;
66585;SDS011;53444;45.822;16.092;2022-08-14T03:23:05;9.10;;;6.50;;
66585;SDS011;53444;45.822;16.092;2022-08-14T03:25:32;9.13;;;6.40;;
66585;SDS011;53444;45.822;16.092;2022-08-14T03:28:01;8.20;;;6.53;;
66585;SDS011;53444;45.822;16.092;2022-08-14T03:30:29;7.65;;;6.18;;
66585;SDS011;53444;45.822;16.092;2022-08-14T03:32:56;7.68;;;6.70;;
66585;SDS011;53444;45.822;16.092;2022-08-14T03:35:23;7.82;;;6.90;;
66585;SDS011;53444;45.822;16.092;2022-08-14T03:37:52;10.17;;;6.63;;
66585;SDS011;53444;45.822;16.092;2022-08-14T03:40:19;8.07;;;6.57;;
66585;SDS011;53444;45.822;16.092;2022-08-14T03:42:46;7.88;;;6.55;;
66585;SDS011;53444;45.822;16.092;2022-08-14T03:45:13;10.50;;;6.10;;
66585;SDS011;53444;45.822;16.092;2022-08-14T03:47:41;8.80;;;6.97;;
66585;SDS011;53444;45.822;16.092;2022-08-14T03:50:08;8.87;;;6.40;;
66585;SDS011;53444;45.822;16.092;2022-08-14T03:52:37;8.48;;;6.05;;
66585;SDS011;53444;45.822;16.092;2022-08-14T03:55:06;8.50;;;6.45;;
66585;SDS011;53444;45.822;16.092;2022-08-14T03:57:33;9.43;;;6.57;;
66585;SDS011;53444;45.822;16.092;2022-08-14T04:00:00;8.52;;;6.30;;
66585;SDS011;53444;45.822;16.092;2022-08-14T04:02:30;7.27;;;6.47;;
66585;SDS011;53444;45.822;16.092;2022-08-14T04:04:57;8.20;;;6.40;;
66585;SDS011;53444;45.822;16.092;2022-08-14T04:07:25;10.10;;;6.80;;
66585;SDS011;53444;45.822;16.092;2022-08-14T04:09:52;8.18;;;6.80;;
66585;SDS011;53444;45.822;16.092;2022-08-14T04:12:20;8.90;;;7.18;;
66585;SDS011;53444;45.822;16.092;2022-08-14T04:14:47;8.87;;;6.70;;
66585;SDS011;53444;45.822;16.092;2022-08-14T04:17:16;10.20;;;6.70;;
66585;SDS011;53444;45.822;16.092;2022-08-14T04:19:43;10.38;;;7.05;;
66585;SDS011;53444;45.822;16.092;2022-08-14T04:22:11;8.00;;;6.88;;
66585;SDS011;53444;45.822;16.092;2022-08-14T04:24:39;8.57;;;6.90;;
66585;SDS011;53444;45.822;16.092;2022-08-14T04:27:06;8.13;;;6.77;;
66585;SDS011;53444;45.822;16.092;2022-08-14T04:29:36;10.50;;;7.15;;
66585;SDS011;53444;45.822;16.092;2022-08-14T04:32:04;11.05;;;6.90;;
66585;SDS011;53444;45.822;16.092;2022-08-14T04:34:32;8.98;;;6.82;;
66585;SDS011;53444;45.822;16.092;2022-08-14T04:36:59;10.63;;;7.47;;
66585;SDS011;53444;45.822;16.092;2022-08-14T04:39:43;7.73;;;6.37;;
66585;SDS011;53444;45.822;16.092;2022-08-14T04:42:27;10.05;;;7.68;;
66585;SDS011;53444;45.822;16.092;2022-08-14T04:45:12;9.65;;;6.60;;
66585;SDS011;53444;45.822;16.092;2022-08-14T04:47:39;9.90;;;6.63;;
66585;SDS011;53444;45.822;16.092;2022-08-14T04:50:24;9.07;;;6.90;;
66585;SDS011;53444;45.822;16.092;2022-08-14T04:52:50;10.53;;;6.20;;
66585;SDS011;53444;45.822;16.092;2022-08-14T04:55:17;7.85;;;6.28;;
66585;SDS011;53444;45.822;16.092;2022-08-14T04:57:44;8.32;;;6.43;;
66585;SDS011;53444;45.822;16.092;2022-08-14T05:00:13;7.53;;;6.20;;
66585;SDS011;53444;45.822;16.092;2022-08-14T05:02:40;8.18;;;6.43;;
66585;SDS011;53444;45.822;16.092;2022-08-14T05:05:06;8.57;;;6.47;;
66585;SDS011;53444;45.822;16.092;2022-08-14T05:07:33;7.65;;;6.43;;
66585;SDS011;53444;45.822;16.092;2022-08-14T05:10:00;8.95;;;6.30;;
66585;SDS011;53444;45.822;16.092;2022-08-14T05:12:27;9.20;;;6.32;;
66585;SDS011;53444;45.822;16.092;2022-08-14T05:14:55;7.20;;;6.40;;
66585;SDS011;53444;45.822;16.092;2022-08-14T05:17:23;8.47;;;6.73;;
66585;SDS011;53444;45.822;16.092;2022-08-14T05:19:50;8.45;;;6.50;;
66585;SDS011;53444;45.822;16.092;2022-08-14T05:22:17;8.70;;;6.68;;
66585;SDS011;53444;45.822;16.092;2022-08-14T05:24:45;8.85;;;6.55;;
66585;SDS011;53444;45.822;16.092;2022-08-14T05:27:13;8.60;;;6.60;;
66585;SDS011;53444;45.822;16.092;2022-08-14T05:29:44;9.00;;;6.73;;
66585;SDS011;53444;45.822;16.092;2022-08-14T05:32:11;10.38;;;6.88;;
66585;SDS011;53444;45.822;16.092;2022-08-14T05:34:41;9.45;;;6.97;;
66585;SDS011;53444;45.822;16.092;2022-08-14T05:37:08;8.68;;;7.70;;
66585;SDS011;53444;45.822;16.092;2022-08-14T05:39:35;9.45;;;8.40;;
66585;SDS011;53444;45.822;16.092;2022-08-14T05:42:05;10.53;;;8.20;;
66585;SDS011;53444;45.822;16.092;2022-08-14T05:44:32;11.02;;;8.18;;
66585;SDS011;53444;45.822;16.092;2022-08-14T05:46:59;9.38;;;8.10;;
66585;SDS011;53444;45.822;16.092;2022-08-14T05:49:25;9.43;;;7.90;;
66585;SDS011;53444;45.822;16.092;2022-08-14T05:51:56;12.75;;;8.90;;
66585;SDS011;53444;45.822;16.092;2022-08-14T05:54:23;9.90;;;8.33;;
66585;SDS011;53444;45.822;16.092;2022-08-14T05:56:50;9.95;;;7.95;;
66585;SDS011;53444;45.822;16.092;2022-08-14T05:59:16;11.23;;;7.95;;
66585;SDS011;53444;45.822;16.092;2022-08-14T06:01:43;9.98;;;7.93;;
66585;SDS011;53444;45.822;16.092;2022-08-14T06:04:10;10.20;;;8.77;;
66585;SDS011;53444;45.822;16.092;2022-08-14T06:06:37;10.60;;;8.20;;
66585;SDS011;53444;45.822;16.092;2022-08-14T06:09:05;9.38;;;8.27;;
66585;SDS011;53444;45.822;16.092;2022-08-14T06:11:33;10.15;;;7.95;;
66585;SDS011;53444;45.822;16.092;2022-08-14T06:13:59;11.70;;;7.78;;
66585;SDS011;53444;45.822;16.092;2022-08-14T06:16:26;10.88;;;8.45;;
66585;SDS011;53444;45.822;16.092;2022-08-14T06:18:53;9.20;;;7.53;;
66585;SDS011;53444;45.822;16.092;2022-08-14T06:21:21;10.73;;;7.38;;
66585;SDS011;53444;45.822;16.092;2022-08-14T06:23:48;10.02;;;6.57;;
66585;SDS011;53444;45.822;16.092;2022-08-14T06:26:16;10.05;;;6.50;;
66585;SDS011;53444;45.822;16.092;2022-08-14T06:28:42;7.50;;;6.68;;
66585;SDS011;53444;45.822;16.092;2022-08-14T06:31:09;8.60;;;6.27;;
66585;SDS011;53444;45.822;16.092;2022-08-14T06:33:36;7.40;;;6.30;;
66585;SDS011;53444;45.822;16.092;2022-08-14T06:36:03;8.25;;;6.15;;
66585;SDS011;53444;45.822;16.092;2022-08-14T06:38:30;8.38;;;5.68;;
66585;SDS011;53444;45.822;16.092;2022-08-14T06:40:57;7.38;;;5.75;;
66585;SDS011;53444;45.822;16.092;2022-08-14T06:43:25;6.80;;;5.70;;
66585;SDS011;53444;45.822;16.092;2022-08-14T06:45:51;6.68;;;5.60;;
66585;SDS011;53444;45.822;16.092;2022-08-14T06:48:19;7.40;;;6.10;;
66585;SDS011;53444;45.822;16.092;2022-08-14T06:50:47;7.75;;;5.60;;
66585;SDS011;53444;45.822;16.092;2022-08-14T06:53:15;6.88;;;5.57;;
66585;SDS011;53444;45.822;16.092;2022-08-14T06:55:44;6.40;;;5.53;;
66585;SDS011;53444;45.822;16.092;2022-08-14T06:58:12;7.90;;;5.68;;
66585;SDS011;53444;45.822;16.092;2022-08-14T07:00:41;7.75;;;5.78;;
66585;SDS011;53444;45.822;16.092;2022-08-14T07:03:29;7.70;;;5.40;;
66585;SDS011;53444;45.822;16.092;2022-08-14T07:06:13;6.90;;;5.70;;
66585;SDS011;53444;45.822;16.092;2022-08-14T07:08:41;6.53;;;4.80;;
66585;SDS011;53444;45.822;16.092;2022-08-14T07:11:08;6.13;;;5.25;;
66585;SDS011;53444;45.822;16.092;2022-08-14T07:13:36;5.28;;;4.72;;
66585;SDS011;53444;45.822;16.092;2022-08-14T07:16:04;6.95;;;5.50;;
66585;SDS011;53444;45.822;16.092;2022-08-14T07:18:32;5.75;;;5.13;;
66585;SDS011;53444;45.822;16.092;2022-08-14T07:21:00;6.97;;;5.47;;
66585;SDS011;53444;45.822;16.092;2022-08-14T07:23:29;5.88;;;5.28;;
66585;SDS011;53444;45.822;16.092;2022-08-14T07:25:56;13.45;;;5.75;;
66585;SDS011;53444;45.822;16.092;2022-08-14T07:28:24;6.00;;;5.40;;
66585;SDS011;53444;45.822;16.092;2022-08-14T07:30:53;7.10;;;5.50;;
66585;SDS011;53444;45.822;16.092;2022-08-14T07:33:24;6.63;;;5.87;;
66585;SDS011;53444;45.822;16.092;2022-08-14T07:35:52;6.40;;;5.60;;
66585;SDS011;53444;45.822;16.092;2022-08-14T07:38:20;6.38;;;5.68;;
66585;SDS011;53444;45.822;16.092;2022-08-14T07:40:48;7.18;;;5.53;;
66585;SDS011;53444;45.822;16.092;2022-08-14T07:43:16;6.80;;;5.78;;
66585;SDS011;53444;45.822;16.092;2022-08-14T07:45:44;8.43;;;5.50;;
66585;SDS011;53444;45.822;16.092;2022-08-14T07:48:10;8.52;;;5.82;;
66585;SDS011;53444;45.822;16.092;2022-08-14T07:50:38;8.20;;;6.18;;
66585;SDS011;53444;45.822;16.092;2022-08-14T07:53:05;7.10;;;5.70;;
66585;SDS011;53444;45.822;16.092;2022-08-14T07:55:32;8.63;;;5.85;;
66585;SDS011;53444;45.822;16.092;2022-08-14T07:57:59;8.67;;;5.73;;
66585;SDS011;53444;45.822;16.092;2022-08-14T08:00:26;7.93;;;5.78;;
66585;SDS011;53444;45.822;16.092;2022-08-14T08:02:54;7.57;;;5.93;;
66585;SDS011;53444;45.822;16.092;2022-08-14T08:05:23;7.22;;;5.68;;
66585;SDS011;53444;45.822;16.092;2022-08-14T08:07:52;7.03;;;6.15;;
66585;SDS011;53444;45.822;16.092;2022-08-14T08:10:20;8.13;;;6.00;;
66585;SDS011;53444;45.822;16.092;2022-08-14T08:12:57;6.80;;;6.10;;
66585;SDS011;53444;45.822;16.092;2022-08-14T08:15:25;8.32;;;6.55;;
66585;SDS011;53444;45.822;16.092;2022-08-14T08:17:55;7.10;;;6.40;;
66585;SDS011;53444;45.822;16.092;2022-08-14T08:20:22;7.25;;;5.80;;
66585;SDS011;53444;45.822;16.092;2022-08-14T08:22:52;7.53;;;6.00;;
66585;SDS011;53444;45.822;16.092;2022-08-14T08:25:20;7.85;;;6.25;;
66585;SDS011;53444;45.822;16.092;2022-08-14T08:27:54;7.32;;;6.10;;
66585;SDS011;53444;45.822;16.092;2022-08-14T08:30:22;6.60;;;5.90;;
66585;SDS011;53444;45.822;16.092;2022-08-14T08:32:50;7.07;;;5.97;;
66585;SDS011;53444;45.822;16.092;2022-08-14T08:35:17;6.97;;;6.10;;
66585;SDS011;53444;45.822;16.092;2022-08-14T08:37:46;7.15;;;5.88;;
66585;SDS011;53444;45.822;16.092;2022-08-14T08:40:25;7.65;;;6.25;;
66585;SDS011;53444;45.822;16.092;2022-08-14T08:42:53;7.00;;;6.30;;
66585;SDS011;53444;45.822;16.092;2022-08-14T08:45:20;8.25;;;6.35;;
66585;SDS011;53444;45.822;16.092;2022-08-14T08:47:47;7.73;;;6.40;;
66585;SDS011;53444;45.822;16.092;2022-08-14T08:50:16;6.45;;;5.85;;
66585;SDS011;53444;45.822;16.092;2022-08-14T08:52:47;7.43;;;5.93;;
66585;SDS011;53444;45.822;16.092;2022-08-14T08:55:26;6.85;;;6.15;;
66585;SDS011;53444;45.822;16.092;2022-08-14T08:57:54;6.97;;;6.28;;
66585;SDS011;53444;45.822;16.092;2022-08-14T09:00:23;7.83;;;6.10;;
66585;SDS011;53444;45.822;16.092;2022-08-14T09:02:57;7.35;;;6.65;;
66585;SDS011;53444;45.822;16.092;2022-08-14T09:05:27;7.43;;;5.95;;
66585;SDS011;53444;45.822;16.092;2022-08-14T09:08:07;6.95;;;6.25;;
66585;SDS011;53444;45.822;16.092;2022-08-14T09:10:40;7.22;;;6.20;;
66585;SDS011;53444;45.822;16.092;2022-08-14T09:13:07;8.30;;;6.60;;
66585;SDS011;53444;45.822;16.092;2022-08-14T09:15:37;8.85;;;6.60;;
66585;SDS011;53444;45.822;16.092;2022-08-14T09:18:05;7.38;;;6.63;;
66585;SDS011;53444;45.822;16.092;2022-08-14T09:20:33;8.38;;;6.63;;
66585;SDS011;53444;45.822;16.092;2022-08-14T09:23:00;8.18;;;6.93;;
66585;SDS011;53444;45.822;16.092;2022-08-14T09:25:29;7.07;;;6.37;;
66585;SDS011;53444;45.822;16.092;2022-08-14T09:27:57;7.63;;;6.45;;
66585;SDS011;53444;45.822;16.092;2022-08-14T09:30:24;7.63;;;6.82;;
66585;SDS011;53444;45.822;16.092;2022-08-14T09:32:55;7.72;;;6.93;;
66585;SDS011;53444;45.822;16.092;2022-08-14T09:35:41;7.18;;;6.45;;
66585;SDS011;53444;45.822;16.092;2022-08-14T09:38:17;7.63;;;6.93;;
66585;SDS011;53444;45.822;16.092;2022-08-14T09:40:53;9.18;;;6.75;;
66585;SDS011;53444;45.822;16.092;2022-08-14T09:43:29;7.50;;;6.60;;
66585;SDS011;53444;45.822;16.092;2022-08-14T09:45:58;7.50;;;6.35;;
66585;SDS011;53444;45.822;16.092;2022-08-14T09:48:26;7.22;;;6.53;;
66585;SDS011;53444;45.822;16.092;2022-08-14T09:50:54;7.00;;;6.30;;
66585;SDS011;53444;45.822;16.092;2022-08-14T09:53:38;8.35;;;6.43;;
66585;SDS011;53444;45.822;16.092;2022-08-14T09:56:08;9.40;;;6.80;;
66585;SDS011;53444;45.822;16.092;2022-08-14T09:58:37;7.00;;;6.30;;
66585;SDS011;53444;45.822;16.092;2022-08-14T10:01:09;7.20;;;6.50;;
66585;SDS011;53444;45.822;16.092;2022-08-14T10:03:45;7.73;;;6.57;;
66585;SDS011;53444;45.822;16.092;2022-08-14T10:06:14;7.72;;;6.75;;
66585;SDS011;53444;45.822;16.092;2022-08-14T10:08:44;7.82;;;7.03;;
66585;SDS011;53444;45.822;16.092;2022-08-14T10:11:13;8.60;;;6.00;;
66585;SDS011;53444;45.822;16.092;2022-08-14T10:13:44;9.13;;;8.23;;
66585;SDS011;53444;45.822;16.092;2022-08-14T10:16:18;8.33;;;6.87;;
66585;SDS011;53444;45.822;16.092;2022-08-14T10:18:47;8.02;;;6.32;;
66585;SDS011;53444;45.822;16.092;2022-08-14T10:21:16;7.45;;;6.60;;
66585;SDS011;53444;45.822;16.092;2022-08-14T10:23:44;7.90;;;6.40;;
66585;SDS011;53444;45.822;16.092;2022-08-14T10:26:18;9.13;;;6.88;;
66585;SDS011;53444;45.822;16.092;2022-08-14T10:28:47;7.40;;;6.43;;
66585;SDS011;53444;45.822;16.092;2022-08-14T10:31:16;7.35;;;6.10;;
66585;SDS011;53444;45.822;16.092;2022-08-14T10:33:45;7.47;;;6.65;;
66585;SDS011;53444;45.822;16.092;2022-08-14T10:36:25;6.72;;;6.13;;
66585;SDS011;53444;45.822;16.092;2022-08-14T10:38:55;9.25;;;7.75;;
66585;SDS011;53444;45.822;16.092;2022-08-14T10:41:32;8.10;;;6.20;;
66585;SDS011;53444;45.822;16.092;2022-08-14T10:44:07;8.38;;;6.88;;
66585;SDS011;53444;45.822;16.092;2022-08-14T10:46:39;7.32;;;6.18;;
66585;SDS011;53444;45.822;16.092;2022-08-14T10:49:15;6.70;;;6.00;;
66585;SDS011;53444;45.822;16.092;2022-08-14T10:51:53;7.82;;;6.75;;
66585;SDS011;53444;45.822;16.092;2022-08-14T10:54:34;7.80;;;7.00;;
66585;SDS011;53444;45.822;16.092;2022-08-14T10:57:12;8.13;;;7.03;;
66585;SDS011;53444;45.822;16.092;2022-08-14T10:59:46;9.18;;;6.65;;
66585;SDS011;53444;45.822;16.092;2022-08-14T11:02:16;7.95;;;7.15;;
66585;SDS011;53444;45.822;16.092;2022-08-14T11:04:59;8.05;;;7.25;;
66585;SDS011;53444;45.822;16.092;2022-08-14T11:07:33;7.37;;;6.57;;
66585;SDS011;53444;45.822;16.092;2022-08-14T11:10:04;8.18;;;6.35;;
66585;SDS011;53444;45.822;16.092;2022-08-14T11:12:40;8.15;;;6.93;;
66585;SDS011;53444;45.822;16.092;2022-08-14T11:15:13;9.75;;;6.80;;
66585;SDS011;53444;45.822;16.092;2022-08-14T11:17:42;7.50;;;6.70;;
66585;SDS011;53444;45.822;16.092;2022-08-14T11:20:10;6.53;;;5.93;;
66585;SDS011;53444;45.822;16.092;2022-08-14T11:22:37;9.50;;;6.32;;
66585;SDS011;53444;45.822;16.092;2022-08-14T11:25:07;7.22;;;6.53;;
66585;SDS011;53444;45.822;16.092;2022-08-14T11:27:37;7.68;;;6.88;;
66585;SDS011;53444;45.822;16.092;2022-08-14T11:30:05;8.25;;;7.30;;
66585;SDS011;53444;45.822;16.092;2022-08-14T11:32:35;6.93;;;6.23;;
66585;SDS011;53444;45.822;16.092;2022-08-14T11:35:04;7.30;;;6.53;;
66585;SDS011;53444;45.822;16.092;2022-08-14T11:37:32;6.97;;;6.32;;
66585;SDS011;53444;45.822;16.092;2022-08-14T11:39:58;7.25;;;6.38;;
66585;SDS011;53444;45.822;16.092;2022-08-14T11:42:26;7.18;;;6.53;;
66585;SDS011;53444;45.822;16.092;2022-08-14T11:44:55;6.60;;;5.90;;
66585;SDS011;53444;45.822;16.092;2022-08-14T11:47:25;6.78;;;6.18;;
66585;SDS011;53444;45.822;16.092;2022-08-14T11:49:54;7.40;;;6.72;;
66585;SDS011;53444;45.822;16.092;2022-08-14T11:52:20;7.15;;;6.43;;
66585;SDS011;53444;45.822;16.092;2022-08-14T11:54:58;7.13;;;6.43;;
66585;SDS011;53444;45.822;16.092;2022-08-14T11:57:25;6.93;;;6.00;;
66585;SDS011;53444;45.822;16.092;2022-08-14T12:00:01;7.63;;;6.53;;
66585;SDS011;53444;45.822;16.092;2022-08-14T12:02:29;7.07;;;6.38;;
66585;SDS011;53444;45.822;16.092;2022-08-14T12:04:57;6.82;;;6.18;;
66585;SDS011;53444;45.822;16.092;2022-08-14T12:07:24;6.72;;;6.10;;
66585;SDS011;53444;45.822;16.092;2022-08-14T12:09:52;6.57;;;5.83;;
66585;SDS011;53444;45.822;16.092;2022-08-14T12:12:21;6.20;;;5.60;;
66585;SDS011;53444;45.822;16.092;2022-08-14T12:14:49;6.63;;;6.00;;
66585;SDS011;53444;45.822;16.092;2022-08-14T12:17:20;6.70;;;6.07;;
66585;SDS011;53444;45.822;16.092;2022-08-14T12:19:49;6.97;;;6.07;;
66585;SDS011;53444;45.822;16.092;2022-08-14T12:22:19;8.57;;;6.43;;
66585;SDS011;53444;45.822;16.092;2022-08-14T12:24:57;8.93;;;6.40;;
66585;SDS011;53444;45.822;16.092;2022-08-14T12:27:33;7.13;;;5.82;;
66585;SDS011;53444;45.822;16.092;2022-08-14T12:30:01;7.13;;;6.43;;
66585;SDS011;53444;45.822;16.092;2022-08-14T12:32:36;7.18;;;6.43;;
66585;SDS011;53444;45.822;16.092;2022-08-14T12:35:04;7.90;;;6.23;;
66585;SDS011;53444;45.822;16.092;2022-08-14T12:37:35;6.80;;;6.20;;
66585;SDS011;53444;45.822;16.092;2022-08-14T12:40:12;6.47;;;5.88;;
66585;SDS011;53444;45.822;16.092;2022-08-14T12:42:41;7.25;;;6.55;;
66585;SDS011;53444;45.822;16.092;2022-08-14T12:45:09;7.13;;;6.43;;
66585;SDS011;53444;45.822;16.092;2022-08-14T12:47:37;7.60;;;6.90;;
66585;SDS011;53444;45.822;16.092;2022-08-14T12:50:05;7.13;;;6.43;;
66585;SDS011;53444;45.822;16.092;2022-08-14T12:52:35;7.57;;;6.88;;
66585;SDS011;53444;45.822;16.092;2022-08-14T12:55:05;7.88;;;6.95;;
66585;SDS011;53444;45.822;16.092;2022-08-14T12:57:36;7.40;;;6.70;;
66585;SDS011;53444;45.822;16.092;2022-08-14T13:00:11;6.90;;;6.20;;
66585;SDS011;53444;45.822;16.092;2022-08-14T13:02:44;8.07;;;6.20;;
66585;SDS011;53444;45.822;16.092;2022-08-14T13:05:14;7.18;;;6.47;;
66585;SDS011;53444;45.822;16.092;2022-08-14T13:07:42;7.50;;;6.72;;
66585;SDS011;53444;45.822;16.092;2022-08-14T13:10:09;7.45;;;6.68;;
66585;SDS011;53444;45.822;16.092;2022-08-14T13:12:38;7.37;;;6.30;;
66585;SDS011;53444;45.822;16.092;2022-08-14T13:15:07;6.55;;;5.95;;
66585;SDS011;53444;45.822;16.092;2022-08-14T13:17:38;7.43;;;6.35;;
66585;SDS011;53444;45.822;16.092;2022-08-14T13:20:07;7.63;;;6.93;;
66585;SDS011;53444;45.822;16.092;2022-08-14T13:22:36;7.10;;;6.40;;
66585;SDS011;53444;45.822;16.092;2022-08-14T13:25:07;6.73;;;6.13;;
66585;SDS011;53444;45.822;16.092;2022-08-14T13:27:35;6.95;;;6.25;;
66585;SDS011;53444;45.822;16.092;2022-08-14T13:30:04;6.60;;;5.93;;
66585;SDS011;53444;45.822;16.092;2022-08-14T13:32:32;8.18;;;6.70;;
66585;SDS011;53444;45.822;16.092;2022-08-14T13:35:00;9.32;;;5.95;;
66585;SDS011;53444;45.822;16.092;2022-08-14T13:37:27;6.83;;;6.23;;
66585;SDS011;53444;45.822;16.092;2022-08-14T13:39:55;6.85;;;6.22;;
66585;SDS011;53444;45.822;16.092;2022-08-14T13:42:23;7.18;;;6.50;;
66585;SDS011;53444;45.822;16.092;2022-08-14T13:44:53;7.57;;;6.80;;
66585;SDS011;53444;45.822;16.092;2022-08-14T13:47:20;6.82;;;6.13;;
66585;SDS011;53444;45.822;16.092;2022-08-14T13:49:48;6.40;;;5.80;;
66585;SDS011;53444;45.822;16.092;2022-08-14T13:52:17;8.00;;;5.85;;
66585;SDS011;53444;45.822;16.092;2022-08-14T13:54:46;7.25;;;6.55;;
66585;SDS011;53444;45.822;16.092;2022-08-14T13:57:15;7.00;;;6.30;;
66585;SDS011;53444;45.822;16.092;2022-08-14T13:59:45;6.85;;;6.25;;
66585;SDS011;53444;45.822;16.092;2022-08-14T14:02:13;6.93;;;6.03;;
66585;SDS011;53444;45.822;16.092;2022-08-14T14:04:43;6.80;;;6.10;;
66585;SDS011;53444;45.822;16.092;2022-08-14T14:07:12;8.73;;;6.53;;
66585;SDS011;53444;45.822;16.092;2022-08-14T14:09:41;9.43;;;6.40;;
66585;SDS011;53444;45.822;16.092;2022-08-14T14:12:09;6.93;;;6.20;;
66585;SDS011;53444;45.822;16.092;2022-08-14T14:14:37;7.00;;;6.30;;
66585;SDS011;53444;45.822;16.092;2022-08-14T14:17:07;7.47;;;6.05;;
66585;SDS011;53444;45.822;16.092;2022-08-14T14:19:37;7.38;;;6.60;;
66585;SDS011;53444;45.822;16.092;2022-08-14T14:22:11;7.35;;;6.00;;
66585;SDS011;53444;45.822;16.092;2022-08-14T14:24:40;6.90;;;6.30;;
66585;SDS011;53444;45.822;16.092;2022-08-14T14:27:06;6.47;;;5.87;;
66585;SDS011;53444;45.822;16.092;2022-08-14T14:29:34;8.15;;;7.35;;
66585;SDS011;53444;45.822;16.092;2022-08-14T14:32:03;7.70;;;6.90;;
66585;SDS011;53444;45.822;16.092;2022-08-14T14:34:31;6.60;;;6.00;;
66585;SDS011;53444;45.822;16.092;2022-08-14T14:37:02;7.70;;;7.10;;
66585;SDS011;53444;45.822;16.092;2022-08-14T14:39:31;6.80;;;6.10;;
66585;SDS011;53444;45.822;16.092;2022-08-14T14:41:58;6.97;;;6.38;;
66585;SDS011;53444;45.822;16.092;2022-08-14T14:44:32;6.68;;;6.13;;